Time;durP1;ratioP1;P1;durP2;ratioP2;P2;SDS_P1;SDS_P2;PMS_P1;PMS_P2;Temp;Humidity;BMP_temperature;BMP_pressure;BME280_temperature;BME280_humidity;BME280_pressure;Samples;Min_cycle;Max_cycle;Signal;HPM_P1;HPM_P2
2022/04/14 00:00:58;;;;;;;11.73;6.72;;;;;;;13.07;48.88;100954.63;5022677;28;20049;-66
2022/04/14 00:03:25;;;;;;;12.05;7.35;;;;;;;13.05;48.96;100953.88;5031015;28;20053;-66
2022/04/14 00:05:52;;;;;;;13.18;7.25;;;;;;;13.04;49.55;100957.47;5028537;28;20080;-66
2022/04/14 00:08:19;;;;;;;12.80;7.53;;;;;;;13.00;48.74;100954.16;5016696;28;20056;-65
2022/04/14 00:10:46;;;;;;;10.50;7.70;;;;;;;12.97;49.14;100949.09;5027364;28;20073;-66
2022/04/14 00:13:14;;;;;;;9.35;6.43;;;;;;;12.93;49.99;100956.34;5031039;28;20057;-66
2022/04/14 00:15:41;;;;;;;11.45;7.55;;;;;;;12.90;49.89;100940.69;5021604;28;20534;-66
2022/04/14 00:18:08;;;;;;;12.80;7.13;;;;;;;12.86;50.05;100951.53;5030883;28;20060;-65
2022/04/14 00:20:35;;;;;;;8.07;5.95;;;;;;;12.84;49.70;100954.28;5027889;28;20390;-66
2022/04/14 00:23:03;;;;;;;9.55;7.38;;;;;;;12.82;49.81;100952.69;5030472;28;20049;-66
2022/04/14 00:25:31;;;;;;;12.68;7.25;;;;;;;12.80;50.36;100951.94;5027441;28;20057;-66
2022/04/14 00:27:58;;;;;;;11.75;7.57;;;;;;;12.77;50.36;100957.41;5029895;28;20045;-66
2022/04/14 00:30:25;;;;;;;10.95;6.95;;;;;;;12.72;50.57;100954.22;5028484;28;20057;-65
2022/04/14 00:32:52;;;;;;;12.30;7.00;;;;;;;12.67;50.68;100950.06;5023823;28;20084;-65
2022/04/14 00:35:19;;;;;;;11.18;6.78;;;;;;;12.64;50.72;100952.88;5025626;28;20054;-64
2022/04/14 00:37:46;;;;;;;13.32;7.25;;;;;;;12.61;51.09;100954.91;5029417;28;20083;-65
2022/04/14 00:40:13;;;;;;;12.85;6.82;;;;;;;12.56;51.18;100955.19;5027838;28;20079;-64
2022/04/14 00:42:41;;;;;;;14.88;6.90;;;;;;;12.53;51.73;100955.34;5028021;28;20053;-65
2022/04/14 00:45:09;;;;;;;10.57;6.80;;;;;;;12.49;51.92;100953.84;5027439;28;20052;-65
2022/04/14 00:47:36;;;;;;;15.75;7.93;;;;;;;12.47;51.45;100957.50;5028936;28;20442;-65
2022/04/14 00:50:04;;;;;;;11.43;6.40;;;;;;;12.45;51.74;100957.63;5023913;28;20041;-66
2022/04/14 00:52:31;;;;;;;13.32;7.10;;;;;;;12.42;51.98;100953.34;5028900;28;20049;-65
2022/04/14 00:54:58;;;;;;;13.15;7.15;;;;;;;12.39;51.97;100963.28;5028328;28;20068;-65
2022/04/14 00:57:25;;;;;;;15.52;7.47;;;;;;;12.34;52.24;100957.44;5028799;28;20084;-65
2022/04/14 00:59:52;;;;;;;12.80;7.50;;;;;;;12.31;52.32;100960.25;4997884;28;20045;-64
2022/04/14 01:02:20;;;;;;;12.85;7.95;;;;;;;12.27;52.43;100954.31;5029661;28;20057;-64
2022/04/14 01:04:47;;;;;;;9.43;6.15;;;;;;;12.25;52.65;100964.13;5004900;28;20119;-65
2022/04/14 01:07:14;;;;;;;9.02;6.03;;;;;;;12.23;53.23;100958.06;5024437;28;20137;-65
2022/04/14 01:09:42;;;;;;;12.70;7.07;;;;;;;12.23;52.88;100958.06;5013860;28;20501;-65
2022/04/14 01:12:14;;;;;;;11.48;7.22;;;;;;;12.23;52.99;100965.16;5030911;28;20103;-65
2022/04/14 01:14:41;;;;;;;9.98;7.10;;;;;;;12.21;52.84;100957.34;5029336;28;20064;-65
2022/04/14 01:17:09;;;;;;;16.30;7.57;;;;;;;12.19;53.19;100961.00;5022233;28;20050;-65
2022/04/14 01:19:37;;;;;;;10.35;6.95;;;;;;;12.19;52.88;100955.72;5019983;28;20050;-65
2022/04/14 01:22:26;;;;;;;19.25;6.90;;;;;;;12.18;53.02;100961.94;5028916;28;20509;-65
2022/04/14 01:24:55;;;;;;;11.05;6.95;;;;;;;12.15;53.18;100958.53;5024467;28;20469;-64
2022/04/14 01:27:24;;;;;;;15.65;7.25;;;;;;;12.12;53.23;100960.53;5027194;28;20053;-65
2022/04/14 01:29:54;;;;;;;14.07;7.20;;;;;;;12.08;53.62;100956.38;5026627;28;20113;-64
2022/04/14 01:32:22;;;;;;;11.90;7.40;;;;;;;12.05;53.68;100953.91;5026404;28;20056;-64
2022/04/14 01:34:50;;;;;;;12.18;7.20;;;;;;;12.00;54.34;100961.25;5026420;28;20502;-65
2022/04/14 01:37:17;;;;;;;12.25;7.57;;;;;;;11.91;53.95;100966.13;5027477;28;20394;-65
2022/04/14 01:39:44;;;;;;;10.65;7.20;;;;;;;11.87;54.18;100959.31;5007472;28;20494;-65
2022/04/14 01:42:11;;;;;;;10.75;6.90;;;;;;;11.82;54.32;100964.03;5022114;28;20357;-65
2022/04/14 01:44:42;;;;;;;15.30;6.78;;;;;;;11.79;54.51;100961.53;5027516;28;20315;-65
2022/04/14 01:47:09;;;;;;;10.25;6.82;;;;;;;11.77;54.79;100959.94;5022909;28;20060;-65
2022/04/14 01:49:37;;;;;;;9.45;6.63;;;;;;;11.75;54.64;100956.53;5027500;28;20053;-66
2022/04/14 01:52:04;;;;;;;9.80;7.50;;;;;;;11.74;54.98;100970.66;5022640;28;20053;-65
2022/04/14 01:54:31;;;;;;;18.52;7.50;;;;;;;11.66;55.96;100968.44;5026914;28;20049;-65
2022/04/14 01:56:58;;;;;;;9.77;6.47;;;;;;;11.58;55.78;100979.47;5026037;28;20057;-65
2022/04/14 01:59:25;;;;;;;10.93;6.13;;;;;;;11.54;55.57;100975.31;5036316;28;20060;-65
2022/04/14 02:01:52;;;;;;;10.73;6.80;;;;;;;11.52;55.46;100973.69;5027472;28;20053;-65
2022/04/14 02:04:20;;;;;;;11.15;6.50;;;;;;;11.53;55.55;100968.34;5030824;28;20474;-65
2022/04/14 02:06:47;;;;;;;14.77;8.30;;;;;;;11.55;55.50;100970.88;5026752;28;20057;-65
2022/04/14 02:09:14;;;;;;;12.00;7.47;;;;;;;11.57;55.70;100974.25;5026548;28;20049;-65
2022/04/14 02:11:41;;;;;;;15.18;7.68;;;;;;;11.55;55.43;100966.44;5024433;28;20050;-65
2022/04/14 02:14:08;;;;;;;13.80;7.97;;;;;;;11.54;56.19;100969.19;5026344;28;20054;-65
2022/04/14 02:16:35;;;;;;;10.95;7.15;;;;;;;11.49;56.43;100972.09;5023106;28;20056;-65
2022/04/14 02:19:03;;;;;;;11.95;8.25;;;;;;;11.49;56.64;100972.09;5025998;28;20395;-65
2022/04/14 02:21:30;;;;;;;13.23;7.00;;;;;;;11.47;56.61;100968.66;5024224;28;20054;-65
2022/04/14 02:23:57;;;;;;;10.88;7.22;;;;;;;11.46;56.81;100972.25;5025903;28;20337;-65
2022/04/14 02:26:24;;;;;;;14.82;8.00;;;;;;;11.42;57.41;100968.09;5026456;28;20553;-66
2022/04/14 02:28:51;;;;;;;11.15;7.57;;;;;;;11.40;57.00;100968.19;5023196;28;20541;-66
2022/04/14 02:31:18;;;;;;;15.73;7.68;;;;;;;11.39;57.53;100970.88;5026837;28;20056;-65
2022/04/14 02:33:45;;;;;;;11.05;7.20;;;;;;;11.36;57.70;100981.63;5025687;28;20053;-66
2022/04/14 02:36:12;;;;;;;12.82;8.05;;;;;;;11.33;57.55;100987.06;5026961;28;20041;-66
2022/04/14 02:38:43;;;;;;;14.68;8.25;;;;;;;11.36;58.12;100989.53;5025733;28;20049;-65
2022/04/14 02:41:10;;;;;;;13.85;7.30;;;;;;;11.40;57.62;100993.69;5026999;28;20049;-65
2022/04/14 02:43:37;;;;;;;12.60;7.47;;;;;;;11.35;58.29;100991.31;5026610;28;20064;-65
2022/04/14 02:46:05;;;;;;;17.15;8.18;;;;;;;11.34;57.97;100994.88;5026262;28;20049;-64
2022/04/14 02:48:32;;;;;;;14.82;8.88;;;;;;;11.31;58.63;100999.50;5023366;28;20057;-65
2022/04/14 02:50:59;;;;;;;18.70;8.60;;;;;;;11.26;59.16;100997.13;5026026;28;20144;-65
2022/04/14 02:53:26;;;;;;;20.10;8.00;;;;;;;11.28;58.37;101007.56;5026001;28;20064;-65
2022/04/14 02:55:53;;;;;;;15.75;7.40;;;;;;;11.25;58.95;100997.19;5019472;28;20505;-65
2022/04/14 02:58:21;;;;;;;12.80;8.30;;;;;;;11.28;59.06;101003.13;5027913;28;20563;-65
2022/04/14 03:00:49;;;;;;;14.13;7.63;;;;;;;11.30;59.41;101001.28;5024018;28;20064;-65
2022/04/14 03:03:17;;;;;;;12.00;8.00;;;;;;;11.27;59.66;100996.16;5018456;28;20677;-65
2022/04/14 03:05:44;;;;;;;13.43;8.50;;;;;;;11.26;60.25;100996.25;5023857;28;20061;-65
2022/04/14 03:08:11;;;;;;;13.73;8.70;;;;;;;11.24;59.81;101006.88;5027832;28;20483;-64
2022/04/14 03:10:38;;;;;;;14.18;7.75;;;;;;;11.24;60.33;101003.38;5024510;28;20054;-65
2022/04/14 03:13:05;;;;;;;14.00;8.38;;;;;;;11.23;60.50;101021.00;5025629;28;20517;-65
2022/04/14 03:15:33;;;;;;;23.20;8.50;;;;;;;11.24;60.73;101020.03;5025107;28;20064;-65
2022/04/14 03:18:00;;;;;;;15.05;9.20;;;;;;;11.24;60.44;101017.41;5026623;28;20038;-65
2022/04/14 03:20:27;;;;;;;21.00;9.60;;;;;;;11.23;61.36;101033.31;5016132;28;20057;-65
2022/04/14 03:22:57;;;;;;;18.33;9.65;;;;;;;11.18;61.80;101028.31;5026507;28;20053;-65
2022/04/14 03:25:24;;;;;;;15.80;9.65;;;;;;;11.15;62.33;101026.66;5029078;28;20046;-64
2022/04/14 03:27:51;;;;;;;19.75;9.65;;;;;;;11.08;62.65;101022.69;5031893;28;20054;-66
2022/04/14 03:30:18;;;;;;;16.45;10.00;;;;;;;11.03;62.58;101024.72;5035144;28;20045;-66
2022/04/14 03:32:46;;;;;;;18.83;10.02;;;;;;;11.03;62.99;101027.38;5025413;28;20376;-66
2022/04/14 03:35:14;;;;;;;21.05;10.93;;;;;;;10.99;63.29;101032.88;5030091;28;20297;-67
2022/04/14 03:37:43;;;;;;;18.10;10.13;;;;;;;10.94;62.94;101038.38;5011633;28;20045;-66
2022/04/14 03:40:11;;;;;;;17.90;10.48;;;;;;;10.88;64.01;101033.44;5029843;28;20057;-66
2022/04/14 03:42:38;;;;;;;18.67;9.30;;;;;;;10.80;65.94;101025.09;5011694;28;20065;-66
2022/04/14 03:45:06;;;;;;;15.48;9.18;;;;;;;10.74;67.09;101023.66;5027267;28;20049;-66
2022/04/14 03:47:33;;;;;;;16.85;9.43;;;;;;;10.70;69.00;101024.75;5011206;28;20056;-66
2022/04/14 03:50:00;;;;;;;14.43;9.55;;;;;;;10.69;69.68;101022.19;5029289;28;20121;-66
2022/04/14 03:52:27;;;;;;;16.58;9.45;;;;;;;10.64;71.33;101025.06;5029697;28;20075;-66
2022/04/14 03:54:55;;;;;;;16.33;8.43;;;;;;;10.66;71.17;101031.09;5022806;28;20076;-66
2022/04/14 03:57:22;;;;;;;15.65;8.93;;;;;;;10.63;72.24;101034.75;5029523;28;20049;-66
2022/04/14 03:59:49;;;;;;;15.93;8.50;;;;;;;10.60;72.71;101026.16;5029339;28;20053;-66
2022/04/14 04:02:16;;;;;;;13.55;8.38;;;;;;;10.60;73.45;101024.38;5028021;28;20053;-66
2022/04/14 04:04:43;;;;;;;12.82;7.85;;;;;;;10.63;74.40;101018.97;5026646;28;20057;-66
2022/04/14 04:07:10;;;;;;;16.27;8.02;;;;;;;10.59;74.62;101022.69;5027077;28;20050;-66
2022/04/14 04:09:38;;;;;;;15.45;8.63;;;;;;;10.59;74.63;101021.84;5029070;28;20060;-66
2022/04/14 04:12:06;;;;;;;16.27;9.05;;;;;;;10.56;76.00;101033.38;5029115;28;20049;-66
2022/04/14 04:14:33;;;;;;;17.25;8.02;;;;;;;10.54;76.07;101026.50;5026597;28;20145;-66
2022/04/14 04:17:01;;;;;;;14.57;7.55;;;;;;;10.58;75.46;101031.53;5023534;28;20049;-66
2022/04/14 04:19:28;;;;;;;16.48;9.38;;;;;;;10.60;76.80;101032.28;5028532;28;20061;-65
2022/04/14 04:21:55;;;;;;;12.00;8.48;;;;;;;10.59;76.78;101035.00;5029186;28;20168;-66
2022/04/14 04:24:22;;;;;;;15.60;9.25;;;;;;;10.61;77.19;101051.56;5027728;28;20125;-66
2022/04/14 04:26:50;;;;;;;18.52;8.77;;;;;;;10.64;77.88;101057.50;5031297;28;20056;-66
2022/04/14 04:29:17;;;;;;;14.88;9.40;;;;;;;10.61;79.05;101059.44;5030811;28;20241;-66
2022/04/14 04:31:44;;;;;;;13.60;8.60;;;;;;;10.63;78.82;101068.13;5028263;28;20060;-66
2022/04/14 04:34:11;;;;;;;13.30;8.90;;;;;;;10.64;78.83;101067.19;5026524;28;20532;-65
2022/04/14 04:36:38;;;;;;;13.45;8.10;;;;;;;10.66;78.99;101065.31;5027464;28;20066;-67
2022/04/14 04:39:06;;;;;;;15.20;8.40;;;;;;;10.71;79.34;101070.34;5028314;28;20065;-66
2022/04/14 04:41:33;;;;;;;14.27;8.55;;;;;;;10.72;79.16;101070.28;5028184;28;20076;-66
2022/04/14 04:44:00;;;;;;;15.43;8.30;;;;;;;10.77;79.24;101084.06;5028268;28;20046;-65
2022/04/14 04:46:27;;;;;;;15.68;8.13;;;;;;;10.83;79.07;101078.47;5028915;28;20512;-66
2022/04/14 04:48:54;;;;;;;12.90;6.72;;;;;;;10.88;78.71;101075.59;5024908;28;20049;-66
2022/04/14 04:51:21;;;;;;;14.80;8.18;;;;;;;10.96;78.61;101083.94;5028680;28;20053;-66
2022/04/14 04:53:48;;;;;;;15.40;7.38;;;;;;;11.03;78.02;101080.06;5027779;28;20057;-66
2022/04/14 04:56:17;;;;;;;13.35;7.47;;;;;;;11.11;77.82;101085.75;5022687;28;20052;-66
2022/04/14 04:58:45;;;;;;;13.68;8.13;;;;;;;11.14;78.31;101084.75;5033402;28;20660;-66
2022/04/14 05:01:12;;;;;;;15.82;8.00;;;;;;;11.16;78.47;101081.06;5028802;28;20046;-66
2022/04/14 05:03:39;;;;;;;12.68;7.35;;;;;;;11.19;78.51;101069.53;5028144;28;20358;-65
2022/04/14 05:06:06;;;;;;;13.80;7.43;;;;;;;11.26;77.75;101064.78;5028287;28;20061;-65
2022/04/14 05:08:33;;;;;;;16.27;7.00;;;;;;;11.35;76.46;101059.84;5027468;28;20057;-65
2022/04/14 05:11:07;;;;;;;15.00;7.55;;;;;;;11.40;77.57;101056.97;5028264;28;20049;-65
2022/04/14 05:13:34;;;;;;;12.18;7.32;;;;;;;11.44;77.16;101057.63;5028471;28;20057;-65
2022/04/14 05:16:02;;;;;;;10.32;6.95;;;;;;;11.53;76.60;101067.69;5027190;28;20409;-65
2022/04/14 05:18:29;;;;;;;27.27;8.82;;;;;;;11.52;76.76;101066.81;5009791;28;20473;-66
2022/04/14 05:20:56;;;;;;;10.13;7.43;;;;;;;11.58;76.83;101068.28;5027102;28;20128;-66
2022/04/14 05:23:23;;;;;;;17.15;7.53;;;;;;;11.59;76.99;101052.34;5013977;28;20505;-65
2022/04/14 05:25:51;;;;;;;12.50;7.50;;;;;;;11.65;76.56;101061.69;5025178;28;20061;-65
2022/04/14 05:28:18;;;;;;;13.20;6.97;;;;;;;11.71;76.27;101071.03;5028702;28;20088;-65
2022/04/14 05:30:45;;;;;;;14.48;7.50;;;;;;;11.74;76.33;101065.59;5025789;28;20405;-66
2022/04/14 05:33:12;;;;;;;14.10;7.80;;;;;;;11.82;75.78;101069.53;5029351;28;20137;-65
2022/04/14 05:35:40;;;;;;;11.15;7.78;;;;;;;11.92;75.60;101067.22;5021407;28;20067;-65
2022/04/14 05:38:07;;;;;;;12.15;7.40;;;;;;;12.00;75.13;101064.16;5029331;28;20060;-66
2022/04/14 05:40:35;;;;;;;10.93;7.43;;;;;;;12.08;75.16;101064.56;5026896;28;20053;-65
2022/04/14 05:43:02;;;;;;;13.25;8.25;;;;;;;12.18;74.93;101072.78;5028020;28;20050;-67
2022/04/14 05:45:31;;;;;;;13.30;7.68;;;;;;;12.22;75.39;101069.03;5026379;28;20057;-66
2022/04/14 05:47:58;;;;;;;12.18;7.38;;;;;;;12.32;74.17;101075.47;5010705;28;20390;-66
2022/04/14 05:50:25;;;;;;;15.02;8.02;;;;;;;12.40;74.59;101067.94;5026753;28;20065;-65
2022/04/14 05:52:55;;;;;;;15.85;7.55;;;;;;;12.44;74.42;101068.63;5024502;28;20049;-66
2022/04/14 05:55:22;;;;;;;18.63;7.95;;;;;;;12.51;74.56;101073.44;5027175;28;20057;-65
2022/04/14 05:57:49;;;;;;;20.42;8.25;;;;;;;12.55;74.49;101069.66;5027644;28;20060;-65
2022/04/14 06:00:16;;;;;;;20.17;9.30;;;;;;;12.68;73.74;101073.25;5027137;28;20045;-66
2022/04/14 06:02:43;;;;;;;14.02;7.93;;;;;;;12.78;73.32;101083.28;5025366;28;20066;-66
2022/04/14 06:05:10;;;;;;;19.67;7.75;;;;;;;12.82;73.42;101076.84;5023773;28;20049;-66
2022/04/14 06:07:38;;;;;;;12.07;7.30;;;;;;;12.90;72.87;101078.09;5024841;28;20068;-66
2022/04/14 06:10:05;;;;;;;13.40;7.63;;;;;;;13.01;72.06;101080.06;5027191;28;20133;-66
2022/04/14 06:12:32;;;;;;;12.30;7.78;;;;;;;13.05;72.17;101084.22;5027575;28;20053;-66
2022/04/14 06:14:59;;;;;;;15.40;7.45;;;;;;;13.07;72.40;101081.50;5025765;28;20061;-65
2022/04/14 06:17:26;;;;;;;16.67;7.97;;;;;;;13.14;71.60;101088.09;5018233;28;20574;-66
2022/04/14 06:19:55;;;;;;;12.77;7.88;;;;;;;13.22;71.39;101087.63;5027450;28;20061;-66
2022/04/14 06:22:22;;;;;;;21.10;8.23;;;;;;;13.20;71.31;101086.88;5030009;28;20421;-66
2022/04/14 06:24:50;;;;;;;15.98;8.35;;;;;;;13.23;71.30;101084.91;5029655;28;20049;-65
2022/04/14 06:27:17;;;;;;;17.02;8.52;;;;;;;13.28;71.59;101087.25;5027158;28;20053;-65
2022/04/14 06:29:44;;;;;;;25.15;9.45;;;;;;;13.32;71.63;101079.03;5025626;28;20067;-66
2022/04/14 06:32:11;;;;;;;15.63;8.50;;;;;;;13.31;70.75;101092.34;5024942;28;20068;-65
2022/04/14 06:34:42;;;;;;;17.33;8.32;;;;;;;13.39;70.59;101085.66;5007989;28;20434;-65
2022/04/14 06:37:09;;;;;;;18.85;9.27;;;;;;;13.46;70.38;101091.38;5026885;28;20045;-66
2022/04/14 06:39:36;;;;;;;22.17;8.23;;;;;;;13.66;69.68;101090.13;5026560;28;20160;-66
2022/04/14 06:42:05;;;;;;;13.30;8.35;;;;;;;13.76;69.07;101087.72;5024030;28;20390;-66
2022/04/14 06:44:32;;;;;;;14.15;7.70;;;;;;;13.88;68.73;101084.28;5026342;28;20092;-65
2022/04/14 06:46:59;;;;;;;14.18;7.95;;;;;;;14.04;67.68;101084.97;5027156;28;20382;-66
2022/04/14 06:49:26;;;;;;;12.05;7.75;;;;;;;14.22;68.01;101085.53;5026772;28;20050;-65
2022/04/14 06:51:53;;;;;;;12.32;8.90;;;;;;;14.12;67.52;101093.25;5027045;28;20053;-66
2022/04/14 06:54:22;;;;;;;14.63;7.78;;;;;;;14.19;67.38;101091.91;5008359;28;20056;-65
2022/04/14 06:56:49;;;;;;;18.70;9.10;;;;;;;14.35;67.31;101091.72;5027349;28;20049;-66
2022/04/14 06:59:16;;;;;;;24.92;8.93;;;;;;;14.48;66.59;101090.91;5024710;28;20064;-66
2022/04/14 07:01:43;;;;;;;18.50;9.05;;;;;;;14.56;66.58;101093.91;5026584;28;20402;-67
2022/04/14 07:04:10;;;;;;;16.88;8.50;;;;;;;14.65;66.03;101094.13;5026285;28;20057;-65
2022/04/14 07:06:38;;;;;;;13.20;7.15;;;;;;;14.83;65.79;101081.41;5024805;28;20053;-67
2022/04/14 07:09:05;;;;;;;14.52;7.65;;;;;;;14.93;64.97;101089.56;5025946;28;20357;-66
2022/04/14 07:11:32;;;;;;;13.23;7.97;;;;;;;15.08;64.71;101085.81;5026845;28;20057;-67
2022/04/14 07:13:59;;;;;;;14.52;7.32;;;;;;;15.25;64.50;101084.63;5026174;28;20461;-65
2022/04/14 07:16:26;;;;;;;11.98;6.43;;;;;;;15.33;63.91;101081.44;5025520;28;20591;-66
2022/04/14 07:18:53;;;;;;;13.20;7.22;;;;;;;15.55;63.00;101086.91;5027906;28;20060;-67
2022/04/14 07:21:21;;;;;;;13.13;6.80;;;;;;;15.76;62.41;101084.53;5026542;28;20136;-66
2022/04/14 07:23:48;;;;;;;16.73;7.63;;;;;;;15.85;62.01;101083.00;5025809;28;20672;-67
2022/04/14 07:26:15;;;;;;;34.88;8.57;;;;;;;15.98;61.02;101089.09;5023186;28;20066;-66
2022/04/14 07:28:42;;;;;;;36.38;8.90;;;;;;;15.99;61.38;101092.63;5025495;28;20560;-66
2022/04/14 07:31:09;;;;;;;19.55;7.00;;;;;;;15.78;61.98;101092.38;5026311;28;20049;-66
2022/04/14 07:33:36;;;;;;;16.67;7.70;;;;;;;15.69;62.31;101096.56;5024547;28;20053;-63
2022/04/14 07:36:03;;;;;;;14.20;6.90;;;;;;;15.69;62.71;101102.69;5021227;28;20068;-65
2022/04/14 07:38:50;;;;;;;18.70;7.80;;;;;;;15.71;62.35;101097.28;5025584;28;20067;-65
2022/04/14 07:41:18;;;;;;;14.55;6.72;;;;;;;15.92;62.09;101100.16;5026986;28;20045;-64
2022/04/14 07:43:45;;;;;;;14.52;6.15;;;;;;;16.07;61.20;101093.72;5026002;28;21027;-65
2022/04/14 07:46:12;;;;;;;14.63;6.57;;;;;;;16.25;60.64;101101.28;5017690;28;20045;-65
2022/04/14 07:48:39;;;;;;;15.25;7.70;;;;;;;16.46;59.92;101100.50;5026002;28;20088;-66
2022/04/14 07:51:07;;;;;;;18.02;7.43;;;;;;;16.64;59.23;101100.91;5026677;28;20083;-66
2022/04/14 07:53:37;;;;;;;19.73;7.22;;;;;;;16.62;59.20;101100.19;5010796;28;20053;-64
2022/04/14 07:56:05;;;;;;;14.30;7.40;;;;;;;16.84;59.07;101103.84;5024947;28;20185;-65
2022/04/14 07:58:33;;;;;;;17.85;6.95;;;;;;;17.00;58.71;101101.72;5008520;28;20407;-64
2022/04/14 08:01:00;;;;;;;20.85;7.53;;;;;;;17.18;58.06;101104.75;5024705;28;20057;-66
2022/04/14 08:03:27;;;;;;;11.32;7.03;;;;;;;17.08;57.51;101106.44;5023971;28;20053;-64
2022/04/14 08:05:54;;;;;;;11.13;6.82;;;;;;;17.28;58.17;101112.84;5024954;28;20056;-64
2022/04/14 08:08:23;;;;;;;13.32;6.63;;;;;;;17.53;57.63;101109.06;5025628;28;20057;-65
2022/04/14 08:10:50;;;;;;;10.30;6.65;;;;;;;17.74;56.37;101104.69;5025516;28;21211;-66
2022/04/14 08:13:18;;;;;;;10.65;5.88;;;;;;;17.60;56.53;101105.78;5030666;28;20037;-65
2022/04/14 08:15:45;;;;;;;12.38;6.18;;;;;;;17.81;56.25;101103.22;5025392;28;20587;-65
2022/04/14 08:18:13;;;;;;;11.45;5.80;;;;;;;17.77;56.45;101107.09;5026100;28;20061;-65
2022/04/14 08:20:40;;;;;;;10.82;6.55;;;;;;;17.67;56.76;101108.81;5027599;28;20057;-65
2022/04/14 08:23:13;;;;;;;12.88;6.15;;;;;;;17.67;56.61;101109.66;5031411;28;20476;-65
2022/04/14 08:25:41;;;;;;;14.10;5.70;;;;;;;17.67;56.84;101117.63;5026025;28;20068;-65
2022/04/14 08:28:25;;;;;;;10.07;5.35;;;;;;;17.70;57.46;101120.06;5013055;28;20505;-65
2022/04/14 08:30:54;;;;;;;7.20;5.40;;;;;;;18.01;57.18;101130.88;5027426;28;20053;-66
2022/04/14 08:33:23;;;;;;;10.93;4.88;;;;;;;18.18;56.12;101129.50;5008491;28;20060;-64
2022/04/14 08:35:52;;;;;;;6.07;3.95;;;;;;;18.17;56.54;101131.31;5009692;28;20072;-65
2022/04/14 08:38:19;;;;;;;8.73;3.97;;;;;;;18.18;57.12;101141.00;5030105;28;20072;-66
2022/04/14 08:40:47;;;;;;;8.48;3.83;;;;;;;18.23;57.14;101136.13;5009046;28;20069;-65
2022/04/14 08:43:35;;;;;;;9.05;4.18;;;;;;;18.44;56.35;101133.50;5029818;28;20053;-63
2022/04/14 08:46:03;;;;;;;9.18;3.33;;;;;;;18.41;56.48;101130.25;5025832;28;20124;-65
2022/04/14 08:48:31;;;;;;;10.20;3.40;;;;;;;18.58;56.36;101131.50;5029959;28;20058;-64
2022/04/14 08:50:58;;;;;;;9.50;3.47;;;;;;;18.50;56.70;101136.63;5024522;28;20061;-65
2022/04/14 08:53:26;;;;;;;8.77;3.15;;;;;;;18.68;55.70;101138.56;5028867;28;20057;-64
2022/04/14 08:55:54;;;;;;;12.13;3.20;;;;;;;18.65;55.71;101141.53;5019585;28;20045;-64
2022/04/14 08:58:26;;;;;;;11.30;3.38;;;;;;;18.63;55.82;101143.44;5023620;28;20058;-63
2022/04/14 09:00:55;;;;;;;9.10;3.15;;;;;;;18.70;55.22;101155.34;5026183;28;20059;-65
2022/04/14 09:03:42;;;;;;;6.97;3.00;;;;;;;18.89;54.75;101161.78;5027994;28;20053;-64
2022/04/14 09:06:09;;;;;;;12.48;3.33;;;;;;;19.40;53.17;101159.06;5029851;28;20053;-66
2022/04/14 09:08:36;;;;;;;6.85;3.55;;;;;;;19.52;52.69;101153.66;5028502;28;20061;-63
2022/04/14 09:11:07;;;;;;;12.02;3.85;;;;;;;19.34;53.29;101161.44;5029034;28;20045;-66
2022/04/14 09:13:37;;;;;;;8.07;2.92;;;;;;;19.35;53.31;101161.31;4994812;28;20065;-65
2022/04/14 09:16:04;;;;;;;6.35;3.25;;;;;;;19.27;53.24;101166.47;5027676;28;20057;-66
2022/04/14 09:18:32;;;;;;;6.90;3.25;;;;;;;19.41;53.39;101162.63;5021405;28;20063;-66
2022/04/14 09:21:04;;;;;;;6.22;2.85;;;;;;;19.52;52.67;101159.84;5028400;28;20057;-65
2022/04/14 09:23:31;;;;;;;11.73;3.38;;;;;;;19.77;51.86;101147.84;5030186;28;20069;-64
2022/04/14 09:26:06;;;;;;;10.65;3.70;;;;;;;20.23;51.83;101147.22;5024562;28;20133;-65
2022/04/14 09:28:33;;;;;;;6.28;3.33;;;;;;;20.26;51.15;101142.53;5028212;28;20068;-64
2022/04/14 09:31:05;;;;;;;7.18;3.83;;;;;;;20.55;49.67;101148.78;5027704;28;20058;-65
2022/04/14 09:33:34;;;;;;;7.80;3.70;;;;;;;20.86;48.87;101152.13;5009969;28;20073;-66
2022/04/14 09:36:14;;;;;;;7.10;4.03;;;;;;;21.37;48.31;101150.84;5027856;28;20061;-65
2022/04/14 09:38:58;;;;;;;7.18;4.10;;;;;;;21.60;48.02;101147.78;5027575;28;20057;-66
2022/04/14 09:41:39;;;;;;;10.63;3.75;;;;;;;21.13;48.21;101147.81;5026800;28;20061;-65
2022/04/14 09:44:08;;;;;;;8.23;3.47;;;;;;;20.76;48.72;101148.63;5020980;28;20052;-64
2022/04/14 09:46:37;;;;;;;6.75;2.13;;;;;;;20.02;50.58;101141.13;5027550;28;20057;-66
2022/04/14 09:49:12;;;;;;;6.10;2.10;;;;;;;20.10;50.62;101154.66;5027736;28;20049;-65
2022/04/14 09:51:41;;;;;;;4.82;1.67;;;;;;;19.69;52.24;101145.88;5022269;28;20058;-66
2022/04/14 09:54:13;;;;;;;5.95;1.30;;;;;;;19.74;52.24;101153.47;5027360;28;20038;-65
2022/04/14 09:56:54;;;;;;;4.65;1.60;;;;;;;19.03;54.06;101158.75;5028238;28;20049;-65
2022/04/14 09:59:22;;;;;;;6.15;1.88;;;;;;;19.18;54.05;101154.78;5024368;28;20132;-65
2022/04/14 10:01:49;;;;;;;5.38;1.33;;;;;;;19.19;54.06;101159.13;5027437;28;20056;-66
2022/04/14 10:04:33;;;;;;;11.20;2.20;;;;;;;19.31;54.09;101151.03;4994335;28;20056;-64
2022/04/14 10:07:07;;;;;;;9.57;2.95;;;;;;;18.85;54.97;101153.19;5026932;28;20056;-65
2022/04/14 10:09:35;;;;;;;3.92;1.80;;;;;;;18.55;56.01;101150.41;5027843;28;20069;-66
2022/04/14 10:12:03;;;;;;;4.85;2.30;;;;;;;18.60;55.93;101151.72;5027483;28;20052;-64
2022/04/14 10:14:30;;;;;;;4.15;2.47;;;;;;;18.60;56.19;101157.06;5027223;28;20061;-65
2022/04/14 10:16:59;;;;;;;5.75;2.50;;;;;;;18.61;56.17;101150.75;5010269;28;20064;-65
2022/04/14 10:19:31;;;;;;;6.72;2.63;;;;;;;18.48;56.66;101150.94;5030267;28;20064;-66
2022/04/14 10:21:58;;;;;;;7.97;3.10;;;;;;;18.56;56.50;101160.97;5010576;28;20068;-66
2022/04/14 10:24:26;;;;;;;8.93;4.10;;;;;;;18.25;57.15;101156.50;5027384;28;20045;-67
2022/04/14 10:26:53;;;;;;;11.52;4.05;;;;;;;18.21;57.89;101164.72;5025385;28;20050;-65
2022/04/14 10:29:21;;;;;;;12.68;4.10;;;;;;;18.61;56.52;101163.25;5025454;28;20057;-65
2022/04/14 10:31:53;;;;;;;8.63;3.65;;;;;;;18.96;55.86;101163.78;5026468;28;20053;-66
2022/04/14 10:34:23;;;;;;;8.07;3.47;;;;;;;18.82;55.72;101163.25;5021203;28;20056;-66
2022/04/14 10:36:51;;;;;;;6.15;3.08;;;;;;;18.93;55.87;101164.03;5009299;28;20381;-65
2022/04/14 10:39:19;;;;;;;6.55;2.40;;;;;;;19.14;55.61;101160.53;5026098;28;20053;-65
2022/04/14 10:41:49;;;;;;;6.45;2.88;;;;;;;19.00;55.21;101160.84;5027000;28;20064;-64
2022/04/14 10:44:19;;;;;;;6.90;3.00;;;;;;;18.17;58.01;101165.13;5025370;28;20053;-64
2022/04/14 10:46:50;;;;;;;2.90;2.40;;;;;;;17.97;59.04;101169.44;5009144;28;20048;-64
2022/04/14 10:49:27;;;;;;;4.57;2.45;;;;;;;17.79;59.84;101165.59;5017778;28;20462;-65
2022/04/14 10:52:24;;;;;;;3.92;2.53;;;;;;;18.09;59.54;101173.72;5026692;28;20620;-64
2022/04/14 10:54:56;;;;;;;4.85;2.00;;;;;;;17.88;59.52;101172.84;5027404;28;20402;-65
2022/04/14 10:57:40;;;;;;;5.15;2.50;;;;;;;17.68;60.76;101169.91;5027503;28;20061;-65
2022/04/14 11:00:37;;;;;;;3.97;2.45;;;;;;;18.22;59.66;101162.91;5025143;28;20056;-63
2022/04/14 11:03:12;;;;;;;4.55;2.72;;;;;;;18.76;58.02;101172.63;5026219;28;20045;-65
2022/04/14 11:05:44;;;;;;;7.70;3.05;;;;;;;18.46;58.13;101168.00;5028062;28;20054;-65
2022/04/14 11:08:45;;;;;;;10.05;2.63;;;;;;;18.09;59.78;101180.88;5027006;28;20064;-66
2022/04/14 11:11:14;;;;;;;5.32;2.58;;;;;;;18.03;60.65;101179.56;5003997;28;20060;-66
2022/04/14 11:13:55;;;;;;;7.68;3.42;;;;;;;17.82;61.67;101186.63;5025944;28;20053;-65
2022/04/14 11:16:40;;;;;;;7.95;2.30;;;;;;;17.62;62.54;101186.38;5023654;28;20057;-65
2022/04/14 11:19:24;;;;;;;3.42;1.67;;;;;;;17.49;62.84;101191.00;5021255;28;20053;-65
2022/04/14 11:22:05;;;;;;;4.85;2.25;;;;;;;17.15;64.07;101198.09;5029090;28;20060;-64
2022/04/14 11:24:35;;;;;;;5.28;1.90;;;;;;;16.87;65.44;101205.53;5027307;28;20053;-64
2022/04/14 11:27:22;;;;;;;5.72;1.80;;;;;;;16.91;65.68;101200.81;5025537;28;20049;-65